sensor_id;sensor_type;location;lat;lon;timestamp;P1;durP1;ratioP1;P2;durP2;ratioP2
27744;SDS011;61387;48.112;8.616;2022-07-25T00:02:09;12.07;;;10.10;;
27744;SDS011;61387;48.112;8.616;2022-07-25T00:04:35;11.37;;;9.37;;
27744;SDS011;61387;48.112;8.616;2022-07-25T00:07:01;12.30;;;9.83;;
27744;SDS011;61387;48.112;8.616;2022-07-25T00:09:27;10.33;;;8.80;;
27744;SDS011;61387;48.112;8.616;2022-07-25T00:11:52;11.90;;;9.57;;
27744;SDS011;61387;48.112;8.616;2022-07-25T00:14:18;11.67;;;9.33;;
27744;SDS011;61387;48.112;8.616;2022-07-25T00:16:44;12.23;;;9.40;;
27744;SDS011;61387;48.112;8.616;2022-07-25T00:19:10;11.10;;;9.63;;
27744;SDS011;61387;48.112;8.616;2022-07-25T00:21:36;13.87;;;9.73;;
27744;SDS011;61387;48.112;8.616;2022-07-25T00:24:02;11.43;;;9.17;;
27744;SDS011;61387;48.112;8.616;2022-07-25T00:26:28;11.07;;;9.60;;
27744;SDS011;61387;48.112;8.616;2022-07-25T00:28:54;10.77;;;8.50;;
27744;SDS011;61387;48.112;8.616;2022-07-25T00:31:20;12.33;;;9.63;;
27744;SDS011;61387;48.112;8.616;2022-07-25T00:33:46;11.57;;;9.63;;
27744;SDS011;61387;48.112;8.616;2022-07-25T00:36:12;12.97;;;8.40;;
27744;SDS011;61387;48.112;8.616;2022-07-25T00:38:38;10.63;;;9.33;;
27744;SDS011;61387;48.112;8.616;2022-07-25T00:41:04;10.57;;;8.93;;
27744;SDS011;61387;48.112;8.616;2022-07-25T00:43:30;10.57;;;8.93;;
27744;SDS011;61387;48.112;8.616;2022-07-25T00:45:56;12.40;;;9.17;;
27744;SDS011;61387;48.112;8.616;2022-07-25T00:48:23;11.23;;;9.45;;
27744;SDS011;61387;48.112;8.616;2022-07-25T00:50:49;12.03;;;9.93;;
27744;SDS011;61387;48.112;8.616;2022-07-25T00:53:15;12.30;;;9.50;;
27744;SDS011;61387;48.112;8.616;2022-07-25T00:55:41;10.97;;;9.60;;
27744;SDS011;61387;48.112;8.616;2022-07-25T00:58:07;12.30;;;9.73;;
27744;SDS011;61387;48.112;8.616;2022-07-25T01:00:33;11.50;;;9.70;;
27744;SDS011;61387;48.112;8.616;2022-07-25T01:02:59;10.17;;;9.07;;
27744;SDS011;61387;48.112;8.616;2022-07-25T01:05:25;11.07;;;9.00;;
27744;SDS011;61387;48.112;8.616;2022-07-25T01:07:51;11.97;;;9.47;;
27744;SDS011;61387;48.112;8.616;2022-07-25T01:10:17;14.13;;;10.10;;
27744;SDS011;61387;48.112;8.616;2022-07-25T01:12:50;11.20;;;9.93;;
27744;SDS011;61387;48.112;8.616;2022-07-25T01:15:18;11.47;;;9.47;;
27744;SDS011;61387;48.112;8.616;2022-07-25T01:17:45;13.23;;;10.30;;
27744;SDS011;61387;48.112;8.616;2022-07-25T01:22:41;14.30;;;10.73;;
27744;SDS011;61387;48.112;8.616;2022-07-25T01:25:07;12.43;;;10.10;;
27744;SDS011;61387;48.112;8.616;2022-07-25T01:27:33;11.70;;;9.87;;
27744;SDS011;61387;48.112;8.616;2022-07-25T01:29:59;12.57;;;10.03;;
27744;SDS011;61387;48.112;8.616;2022-07-25T01:32:25;11.57;;;10.37;;
27744;SDS011;61387;48.112;8.616;2022-07-25T01:34:51;11.87;;;10.07;;
27744;SDS011;61387;48.112;8.616;2022-07-25T01:37:17;12.33;;;9.57;;
27744;SDS011;61387;48.112;8.616;2022-07-25T01:39:42;13.47;;;10.50;;
27744;SDS011;61387;48.112;8.616;2022-07-25T01:42:08;11.07;;;9.63;;
27744;SDS011;61387;48.112;8.616;2022-07-25T01:44:34;11.67;;;9.70;;
27744;SDS011;61387;48.112;8.616;2022-07-25T01:47:00;11.93;;;9.70;;
27744;SDS011;61387;48.112;8.616;2022-07-25T01:49:25;12.77;;;10.10;;
27744;SDS011;61387;48.112;8.616;2022-07-25T01:51:51;12.87;;;10.47;;
27744;SDS011;61387;48.112;8.616;2022-07-25T01:54:17;13.63;;;11.03;;
27744;SDS011;61387;48.112;8.616;2022-07-25T01:56:44;13.60;;;10.77;;
27744;SDS011;61387;48.112;8.616;2022-07-25T01:59:09;13.97;;;10.63;;
27744;SDS011;61387;48.112;8.616;2022-07-25T02:01:35;13.63;;;10.73;;
27744;SDS011;61387;48.112;8.616;2022-07-25T02:04:02;14.57;;;10.73;;
27744;SDS011;61387;48.112;8.616;2022-07-25T02:06:28;13.83;;;10.03;;
27744;SDS011;61387;48.112;8.616;2022-07-25T02:08:54;15.20;;;10.50;;
27744;SDS011;61387;48.112;8.616;2022-07-25T02:11:20;12.23;;;10.40;;
27744;SDS011;61387;48.112;8.616;2022-07-25T02:13:46;12.67;;;10.47;;
27744;SDS011;61387;48.112;8.616;2022-07-25T02:16:12;12.60;;;10.30;;
27744;SDS011;61387;48.112;8.616;2022-07-25T02:18:38;14.80;;;11.17;;
27744;SDS011;61387;48.112;8.616;2022-07-25T02:21:04;12.63;;;10.47;;
27744;SDS011;61387;48.112;8.616;2022-07-25T02:23:34;12.63;;;10.10;;
27744;SDS011;61387;48.112;8.616;2022-07-25T02:26:00;16.13;;;10.67;;
27744;SDS011;61387;48.112;8.616;2022-07-25T02:28:26;13.00;;;10.53;;
27744;SDS011;61387;48.112;8.616;2022-07-25T02:30:52;12.80;;;10.23;;
27744;SDS011;61387;48.112;8.616;2022-07-25T02:33:18;12.77;;;9.90;;
27744;SDS011;61387;48.112;8.616;2022-07-25T02:35:44;11.57;;;9.77;;
27744;SDS011;61387;48.112;8.616;2022-07-25T02:38:10;12.27;;;10.03;;
27744;SDS011;61387;48.112;8.616;2022-07-25T02:40:43;11.80;;;9.63;;
27744;SDS011;61387;48.112;8.616;2022-07-25T02:43:09;12.17;;;9.70;;
27744;SDS011;61387;48.112;8.616;2022-07-25T02:45:34;12.30;;;10.13;;
27744;SDS011;61387;48.112;8.616;2022-07-25T02:48:00;13.60;;;10.43;;
27744;SDS011;61387;48.112;8.616;2022-07-25T02:50:26;14.63;;;10.57;;
27744;SDS011;61387;48.112;8.616;2022-07-25T02:52:52;14.10;;;10.97;;
27744;SDS011;61387;48.112;8.616;2022-07-25T02:55:18;13.93;;;11.40;;
27744;SDS011;61387;48.112;8.616;2022-07-25T02:57:44;14.73;;;10.87;;
27744;SDS011;61387;48.112;8.616;2022-07-25T03:00:10;13.33;;;10.80;;
27744;SDS011;61387;48.112;8.616;2022-07-25T03:02:36;14.77;;;11.50;;
27744;SDS011;61387;48.112;8.616;2022-07-25T03:05:09;14.27;;;11.30;;
27744;SDS011;61387;48.112;8.616;2022-07-25T03:07:36;14.47;;;11.50;;
27744;SDS011;61387;48.112;8.616;2022-07-25T03:10:02;16.23;;;11.33;;
27744;SDS011;61387;48.112;8.616;2022-07-25T03:12:29;16.10;;;11.57;;
27744;SDS011;61387;48.112;8.616;2022-07-25T03:14:56;14.27;;;11.40;;
27744;SDS011;61387;48.112;8.616;2022-07-25T03:17:22;14.67;;;10.67;;
27744;SDS011;61387;48.112;8.616;2022-07-25T03:19:48;13.40;;;11.13;;
27744;SDS011;61387;48.112;8.616;2022-07-25T03:22:14;18.70;;;11.40;;
27744;SDS011;61387;48.112;8.616;2022-07-25T03:24:40;12.87;;;11.03;;
27744;SDS011;61387;48.112;8.616;2022-07-25T03:27:06;14.27;;;11.07;;
27744;SDS011;61387;48.112;8.616;2022-07-25T03:29:32;14.87;;;11.80;;
27744;SDS011;61387;48.112;8.616;2022-07-25T03:31:58;15.60;;;11.77;;
27744;SDS011;61387;48.112;8.616;2022-07-25T03:34:24;14.17;;;11.90;;
27744;SDS011;61387;48.112;8.616;2022-07-25T03:36:50;13.67;;;11.00;;
27744;SDS011;61387;48.112;8.616;2022-07-25T03:39:16;15.67;;;10.77;;
27744;SDS011;61387;48.112;8.616;2022-07-25T03:41:42;14.37;;;11.20;;
27744;SDS011;61387;48.112;8.616;2022-07-25T03:44:09;14.60;;;11.27;;
27744;SDS011;61387;48.112;8.616;2022-07-25T03:46:35;15.53;;;11.03;;
27744;SDS011;61387;48.112;8.616;2022-07-25T03:49:01;15.37;;;11.77;;
27744;SDS011;61387;48.112;8.616;2022-07-25T03:51:27;14.73;;;11.53;;
27744;SDS011;61387;48.112;8.616;2022-07-25T03:53:53;14.13;;;11.73;;
27744;SDS011;61387;48.112;8.616;2022-07-25T03:56:35;14.20;;;10.80;;
27744;SDS011;61387;48.112;8.616;2022-07-25T03:59:06;13.00;;;10.90;;
27744;SDS011;61387;48.112;8.616;2022-07-25T04:01:32;16.57;;;10.30;;
27744;SDS011;61387;48.112;8.616;2022-07-25T04:03:58;15.10;;;11.30;;
27744;SDS011;61387;48.112;8.616;2022-07-25T04:06:25;15.27;;;11.50;;
27744;SDS011;61387;48.112;8.616;2022-07-25T04:08:51;13.80;;;10.90;;
27744;SDS011;61387;48.112;8.616;2022-07-25T04:11:17;13.93;;;10.80;;
27744;SDS011;61387;48.112;8.616;2022-07-25T04:13:43;12.80;;;9.70;;
27744;SDS011;61387;48.112;8.616;2022-07-25T04:16:09;12.43;;;10.10;;
27744;SDS011;61387;48.112;8.616;2022-07-25T04:18:35;11.70;;;9.90;;
27744;SDS011;61387;48.112;8.616;2022-07-25T04:21:01;12.63;;;9.80;;
27744;SDS011;61387;48.112;8.616;2022-07-25T04:23:27;12.90;;;10.73;;
27744;SDS011;61387;48.112;8.616;2022-07-25T04:25:54;12.57;;;9.67;;
27744;SDS011;61387;48.112;8.616;2022-07-25T04:28:20;11.80;;;9.63;;
27744;SDS011;61387;48.112;8.616;2022-07-25T04:30:46;12.40;;;9.17;;
27744;SDS011;61387;48.112;8.616;2022-07-25T04:33:12;12.90;;;9.80;;
27744;SDS011;61387;48.112;8.616;2022-07-25T04:35:39;11.97;;;9.00;;
27744;SDS011;61387;48.112;8.616;2022-07-25T04:38:05;11.00;;;9.60;;
27744;SDS011;61387;48.112;8.616;2022-07-25T04:40:31;12.63;;;9.70;;
27744;SDS011;61387;48.112;8.616;2022-07-25T04:42:56;11.63;;;9.47;;
27744;SDS011;61387;48.112;8.616;2022-07-25T04:45:22;12.17;;;9.33;;
27744;SDS011;61387;48.112;8.616;2022-07-25T04:47:48;14.13;;;9.93;;
27744;SDS011;61387;48.112;8.616;2022-07-25T04:50:14;12.90;;;10.03;;
27744;SDS011;61387;48.112;8.616;2022-07-25T04:52:40;17.10;;;12.17;;
27744;SDS011;61387;48.112;8.616;2022-07-25T04:55:06;14.43;;;11.70;;
27744;SDS011;61387;48.112;8.616;2022-07-25T04:57:32;13.67;;;11.33;;
27744;SDS011;61387;48.112;8.616;2022-07-25T04:59:58;14.10;;;11.57;;
27744;SDS011;61387;48.112;8.616;2022-07-25T05:02:24;13.60;;;10.80;;
27744;SDS011;61387;48.112;8.616;2022-07-25T05:04:50;15.63;;;11.63;;
27744;SDS011;61387;48.112;8.616;2022-07-25T05:07:16;15.77;;;12.40;;
27744;SDS011;61387;48.112;8.616;2022-07-25T05:09:42;16.27;;;11.33;;
27744;SDS011;61387;48.112;8.616;2022-07-25T05:12:09;15.83;;;11.47;;
27744;SDS011;61387;48.112;8.616;2022-07-25T05:14:36;13.27;;;10.87;;
27744;SDS011;61387;48.112;8.616;2022-07-25T05:17:02;16.95;;;11.00;;
27744;SDS011;61387;48.112;8.616;2022-07-25T05:19:28;19.73;;;11.83;;
27744;SDS011;61387;48.112;8.616;2022-07-25T05:21:54;27.23;;;12.53;;
27744;SDS011;61387;48.112;8.616;2022-07-25T05:24:20;21.93;;;12.23;;
27744;SDS011;61387;48.112;8.616;2022-07-25T05:26:47;24.98;;;13.48;;
27744;SDS011;61387;48.112;8.616;2022-07-25T05:29:12;26.77;;;12.87;;
27744;SDS011;61387;48.112;8.616;2022-07-25T05:31:38;23.90;;;12.87;;
27744;SDS011;61387;48.112;8.616;2022-07-25T05:34:04;18.80;;;11.50;;
27744;SDS011;61387;48.112;8.616;2022-07-25T05:36:30;21.43;;;12.17;;
27744;SDS011;61387;48.112;8.616;2022-07-25T05:38:57;20.47;;;11.53;;
27744;SDS011;61387;48.112;8.616;2022-07-25T05:41:22;16.23;;;10.83;;
27744;SDS011;61387;48.112;8.616;2022-07-25T05:43:48;13.40;;;10.80;;
27744;SDS011;61387;48.112;8.616;2022-07-25T05:46:14;15.50;;;10.23;;
27744;SDS011;61387;48.112;8.616;2022-07-25T05:48:41;13.80;;;10.63;;
27744;SDS011;61387;48.112;8.616;2022-07-25T05:51:07;14.68;;;10.63;;
27744;SDS011;61387;48.112;8.616;2022-07-25T05:53:33;14.00;;;10.90;;
27744;SDS011;61387;48.112;8.616;2022-07-25T05:55:58;17.27;;;11.10;;
27744;SDS011;61387;48.112;8.616;2022-07-25T05:58:24;15.85;;;10.93;;
27744;SDS011;61387;48.112;8.616;2022-07-25T06:00:50;14.73;;;10.57;;
27744;SDS011;61387;48.112;8.616;2022-07-25T06:03:16;16.20;;;11.27;;
27744;SDS011;61387;48.112;8.616;2022-07-25T06:05:43;14.45;;;10.98;;
27744;SDS011;61387;48.112;8.616;2022-07-25T06:08:09;21.40;;;11.95;;
27744;SDS011;61387;48.112;8.616;2022-07-25T06:10:35;23.17;;;12.57;;
27744;SDS011;61387;48.112;8.616;2022-07-25T06:13:01;24.47;;;12.17;;
27744;SDS011;61387;48.112;8.616;2022-07-25T06:15:27;20.17;;;12.23;;
27744;SDS011;61387;48.112;8.616;2022-07-25T06:17:52;16.60;;;10.87;;
27744;SDS011;61387;48.112;8.616;2022-07-25T06:20:18;15.88;;;11.12;;
27744;SDS011;61387;48.112;8.616;2022-07-25T06:22:44;12.60;;;10.30;;
27744;SDS011;61387;48.112;8.616;2022-07-25T06:25:10;19.40;;;11.03;;
27744;SDS011;61387;48.112;8.616;2022-07-25T06:27:37;14.30;;;11.48;;
27744;SDS011;61387;48.112;8.616;2022-07-25T06:30:03;12.75;;;10.95;;
27744;SDS011;61387;48.112;8.616;2022-07-25T06:32:29;15.85;;;10.95;;
27744;SDS011;61387;48.112;8.616;2022-07-25T06:34:55;14.30;;;10.80;;
27744;SDS011;61387;48.112;8.616;2022-07-25T06:37:21;13.73;;;11.40;;
27744;SDS011;61387;48.112;8.616;2022-07-25T06:39:47;14.57;;;11.03;;
27744;SDS011;61387;48.112;8.616;2022-07-25T06:42:13;12.43;;;10.83;;
27744;SDS011;61387;48.112;8.616;2022-07-25T06:44:39;13.17;;;11.03;;
27744;SDS011;61387;48.112;8.616;2022-07-25T06:47:05;13.77;;;11.73;;
27744;SDS011;61387;48.112;8.616;2022-07-25T06:49:36;13.95;;;11.68;;
27744;SDS011;61387;48.112;8.616;2022-07-25T06:52:07;13.43;;;11.95;;
27744;SDS011;61387;48.112;8.616;2022-07-25T06:54:34;16.02;;;12.05;;
27744;SDS011;61387;48.112;8.616;2022-07-25T06:57:00;13.13;;;10.88;;
27744;SDS011;61387;48.112;8.616;2022-07-25T06:59:26;14.32;;;11.52;;
27744;SDS011;61387;48.112;8.616;2022-07-25T07:01:52;14.50;;;11.47;;
27744;SDS011;61387;48.112;8.616;2022-07-25T07:04:18;14.03;;;10.90;;
27744;SDS011;61387;48.112;8.616;2022-07-25T07:06:44;14.07;;;11.17;;
27744;SDS011;61387;48.112;8.616;2022-07-25T07:09:09;12.90;;;10.73;;
27744;SDS011;61387;48.112;8.616;2022-07-25T07:11:35;13.03;;;10.80;;
27744;SDS011;61387;48.112;8.616;2022-07-25T07:14:01;12.57;;;11.27;;
27744;SDS011;61387;48.112;8.616;2022-07-25T07:16:28;12.32;;;10.80;;
27744;SDS011;61387;48.112;8.616;2022-07-25T07:18:54;11.20;;;10.00;;
27744;SDS011;61387;48.112;8.616;2022-07-25T07:21:20;12.20;;;10.60;;
27744;SDS011;61387;48.112;8.616;2022-07-25T07:23:46;11.70;;;10.03;;
27744;SDS011;61387;48.112;8.616;2022-07-25T07:26:12;12.27;;;10.47;;
27744;SDS011;61387;48.112;8.616;2022-07-25T07:28:38;12.27;;;10.33;;
27744;SDS011;61387;48.112;8.616;2022-07-25T07:31:04;10.77;;;9.63;;
27744;SDS011;61387;48.112;8.616;2022-07-25T07:33:30;11.95;;;9.98;;
27744;SDS011;61387;48.112;8.616;2022-07-25T07:35:59;12.68;;;9.85;;
27744;SDS011;61387;48.112;8.616;2022-07-25T07:38:26;11.55;;;9.90;;
27744;SDS011;61387;48.112;8.616;2022-07-25T07:40:52;11.60;;;10.38;;
27744;SDS011;61387;48.112;8.616;2022-07-25T07:43:17;11.53;;;10.00;;
27744;SDS011;61387;48.112;8.616;2022-07-25T07:45:44;13.38;;;9.45;;
27744;SDS011;61387;48.112;8.616;2022-07-25T07:48:10;11.02;;;8.90;;
27744;SDS011;61387;48.112;8.616;2022-07-25T07:50:36;11.57;;;10.30;;
27744;SDS011;61387;48.112;8.616;2022-07-25T07:53:02;12.02;;;9.40;;
27744;SDS011;61387;48.112;8.616;2022-07-25T07:55:28;12.75;;;9.85;;
27744;SDS011;61387;48.112;8.616;2022-07-25T07:58:17;12.45;;;9.85;;
27744;SDS011;61387;48.112;8.616;2022-07-25T08:00:44;11.38;;;9.77;;
27744;SDS011;61387;48.112;8.616;2022-07-25T08:03:11;10.60;;;9.50;;
27744;SDS011;61387;48.112;8.616;2022-07-25T08:05:41;10.88;;;8.90;;
27744;SDS011;61387;48.112;8.616;2022-07-25T08:08:09;10.90;;;9.35;;
27744;SDS011;61387;48.112;8.616;2022-07-25T08:10:37;9.75;;;8.73;;
27744;SDS011;61387;48.112;8.616;2022-07-25T08:15:47;11.98;;;9.27;;
27744;SDS011;61387;48.112;8.616;2022-07-25T08:18:15;9.55;;;8.55;;
27744;SDS011;61387;48.112;8.616;2022-07-25T08:20:41;10.70;;;9.30;;
27744;SDS011;61387;48.112;8.616;2022-07-25T08:23:07;11.37;;;9.50;;
27744;SDS011;61387;48.112;8.616;2022-07-25T08:25:34;11.15;;;9.10;;
27744;SDS011;61387;48.112;8.616;2022-07-25T08:28:01;11.93;;;9.93;;
27744;SDS011;61387;48.112;8.616;2022-07-25T08:30:27;10.38;;;8.60;;
27744;SDS011;61387;48.112;8.616;2022-07-25T08:32:54;12.48;;;9.38;;
27744;SDS011;61387;48.112;8.616;2022-07-25T08:35:22;11.88;;;10.18;;
27744;SDS011;61387;48.112;8.616;2022-07-25T08:37:48;11.52;;;10.15;;
27744;SDS011;61387;48.112;8.616;2022-07-25T08:40:15;11.00;;;9.90;;
27744;SDS011;61387;48.112;8.616;2022-07-25T08:42:42;11.43;;;9.90;;
27744;SDS011;61387;48.112;8.616;2022-07-25T08:45:08;12.05;;;9.40;;
27744;SDS011;61387;48.112;8.616;2022-07-25T08:47:37;13.98;;;9.30;;
27744;SDS011;61387;48.112;8.616;2022-07-25T08:50:05;10.73;;;9.63;;
27744;SDS011;61387;48.112;8.616;2022-07-25T08:52:38;11.00;;;9.27;;
27744;SDS011;61387;48.112;8.616;2022-07-25T08:55:05;12.25;;;9.27;;
27744;SDS011;61387;48.112;8.616;2022-07-25T08:57:33;9.68;;;8.57;;
27744;SDS011;61387;48.112;8.616;2022-07-25T09:00:01;10.75;;;8.93;;
27744;SDS011;61387;48.112;8.616;2022-07-25T09:02:30;11.27;;;9.45;;
27744;SDS011;61387;48.112;8.616;2022-07-25T09:04:56;11.38;;;9.23;;
27744;SDS011;61387;48.112;8.616;2022-07-25T09:07:36;11.48;;;10.27;;
27744;SDS011;61387;48.112;8.616;2022-07-25T09:12:55;13.57;;;9.77;;
27744;SDS011;61387;48.112;8.616;2022-07-25T09:15:28;10.77;;;9.68;;
27744;SDS011;61387;48.112;8.616;2022-07-25T09:17:56;11.93;;;9.45;;
27744;SDS011;61387;48.112;8.616;2022-07-25T09:20:23;10.85;;;9.75;;
27744;SDS011;61387;48.112;8.616;2022-07-25T09:23:00;11.05;;;8.98;;
27744;SDS011;61387;48.112;8.616;2022-07-25T09:25:26;11.37;;;8.63;;
27744;SDS011;61387;48.112;8.616;2022-07-25T09:28:07;8.80;;;7.90;;
27744;SDS011;61387;48.112;8.616;2022-07-25T09:30:34;9.30;;;6.90;;
27744;SDS011;61387;48.112;8.616;2022-07-25T09:33:00;11.63;;;7.33;;
27744;SDS011;61387;48.112;8.616;2022-07-25T09:35:30;8.20;;;7.30;;
27744;SDS011;61387;48.112;8.616;2022-07-25T09:41:00;8.70;;;7.32;;
27744;SDS011;61387;48.112;8.616;2022-07-25T09:46:05;8.57;;;7.00;;
27744;SDS011;61387;48.112;8.616;2022-07-25T09:48:31;8.88;;;6.95;;
27744;SDS011;61387;48.112;8.616;2022-07-25T09:50:57;9.85;;;7.45;;
27744;SDS011;61387;48.112;8.616;2022-07-25T09:53:23;8.50;;;6.45;;
27744;SDS011;61387;48.112;8.616;2022-07-25T09:55:49;7.03;;;6.32;;
27744;SDS011;61387;48.112;8.616;2022-07-25T09:58:17;7.80;;;6.70;;
27744;SDS011;61387;48.112;8.616;2022-07-25T10:00:43;7.75;;;6.93;;
27744;SDS011;61387;48.112;8.616;2022-07-25T10:05:38;8.57;;;6.50;;
27744;SDS011;61387;48.112;8.616;2022-07-25T10:08:35;8.68;;;7.05;;
27744;SDS011;61387;48.112;8.616;2022-07-25T10:11:02;14.30;;;12.23;;
27744;SDS011;61387;48.112;8.616;2022-07-25T10:13:31;9.40;;;6.65;;
27744;SDS011;61387;48.112;8.616;2022-07-25T10:15:58;9.07;;;6.62;;
27744;SDS011;61387;48.112;8.616;2022-07-25T10:18:25;8.05;;;6.65;;
27744;SDS011;61387;48.112;8.616;2022-07-25T10:21:09;7.87;;;6.40;;
27744;SDS011;61387;48.112;8.616;2022-07-25T10:23:36;8.07;;;6.47;;
27744;SDS011;61387;48.112;8.616;2022-07-25T10:26:08;8.77;;;6.03;;
27744;SDS011;61387;48.112;8.616;2022-07-25T10:28:43;8.73;;;6.20;;
27744;SDS011;61387;48.112;8.616;2022-07-25T10:31:18;9.07;;;6.18;;
27744;SDS011;61387;48.112;8.616;2022-07-25T10:39:07;8.65;;;6.30;;
27744;SDS011;61387;48.112;8.616;2022-07-25T10:41:39;7.40;;;5.93;;
27744;SDS011;61387;48.112;8.616;2022-07-25T10:44:10;9.07;;;6.30;;
27744;SDS011;61387;48.112;8.616;2022-07-25T10:46:37;8.00;;;5.87;;
27744;SDS011;61387;48.112;8.616;2022-07-25T10:49:04;6.93;;;5.97;;
27744;SDS011;61387;48.112;8.616;2022-07-25T10:51:35;6.87;;;5.78;;
27744;SDS011;61387;48.112;8.616;2022-07-25T10:54:14;7.85;;;6.07;;
27744;SDS011;61387;48.112;8.616;2022-07-25T10:56:57;7.30;;;5.28;;
27744;SDS011;61387;48.112;8.616;2022-07-25T10:59:34;6.25;;;5.00;;
27744;SDS011;61387;48.112;8.616;2022-07-25T11:02:02;7.37;;;5.65;;
27744;SDS011;61387;48.112;8.616;2022-07-25T11:04:29;7.05;;;5.50;;
27744;SDS011;61387;48.112;8.616;2022-07-25T11:06:55;6.87;;;5.20;;
27744;SDS011;61387;48.112;8.616;2022-07-25T11:09:22;6.67;;;5.60;;
27744;SDS011;61387;48.112;8.616;2022-07-25T11:11:53;6.57;;;5.47;;
27744;SDS011;61387;48.112;8.616;2022-07-25T11:16:47;10.73;;;5.47;;
27744;SDS011;61387;48.112;8.616;2022-07-25T11:19:18;7.55;;;5.25;;
27744;SDS011;61387;48.112;8.616;2022-07-25T11:21:46;6.85;;;4.90;;
27744;SDS011;61387;48.112;8.616;2022-07-25T11:24:14;6.80;;;5.20;;
27744;SDS011;61387;48.112;8.616;2022-07-25T11:26:44;6.87;;;5.10;;
27744;SDS011;61387;48.112;8.616;2022-07-25T11:29:20;6.12;;;4.70;;
27744;SDS011;61387;48.112;8.616;2022-07-25T11:31:57;7.43;;;4.70;;
27744;SDS011;61387;48.112;8.616;2022-07-25T11:34:29;5.10;;;4.30;;
27744;SDS011;61387;48.112;8.616;2022-07-25T11:36:56;8.52;;;4.97;;
27744;SDS011;61387;48.112;8.616;2022-07-25T11:39:28;6.68;;;5.12;;
27744;SDS011;61387;48.112;8.616;2022-07-25T11:42:02;7.12;;;4.87;;
27744;SDS011;61387;48.112;8.616;2022-07-25T11:44:31;8.35;;;5.37;;
27744;SDS011;61387;48.112;8.616;2022-07-25T11:47:01;11.60;;;5.05;;
27744;SDS011;61387;48.112;8.616;2022-07-25T11:49:27;8.63;;;4.82;;
27744;SDS011;61387;48.112;8.616;2022-07-25T11:51:54;8.02;;;4.57;;
27744;SDS011;61387;48.112;8.616;2022-07-25T11:54:20;5.70;;;4.07;;
27744;SDS011;61387;48.112;8.616;2022-07-25T11:56:46;7.65;;;4.90;;
27744;SDS011;61387;48.112;8.616;2022-07-25T11:59:12;7.12;;;4.85;;
27744;SDS011;61387;48.112;8.616;2022-07-25T12:01:39;6.17;;;4.53;;
27744;SDS011;61387;48.112;8.616;2022-07-25T12:04:12;6.18;;;4.90;;
27744;SDS011;61387;48.112;8.616;2022-07-25T12:06:46;6.40;;;5.12;;
27744;SDS011;61387;48.112;8.616;2022-07-25T12:09:17;7.35;;;5.47;;
27744;SDS011;61387;48.112;8.616;2022-07-25T12:11:44;8.75;;;6.00;;
27744;SDS011;61387;48.112;8.616;2022-07-25T12:14:11;6.70;;;6.00;;
27744;SDS011;61387;48.112;8.616;2022-07-25T12:16:38;8.90;;;5.60;;
27744;SDS011;61387;48.112;8.616;2022-07-25T12:19:07;8.65;;;6.60;;
27744;SDS011;61387;48.112;8.616;2022-07-25T12:21:33;7.30;;;6.18;;
27744;SDS011;61387;48.112;8.616;2022-07-25T12:23:59;7.60;;;5.93;;
27744;SDS011;61387;48.112;8.616;2022-07-25T12:26:25;7.03;;;5.90;;
27744;SDS011;61387;48.112;8.616;2022-07-25T12:28:51;8.03;;;5.50;;
27744;SDS011;61387;48.112;8.616;2022-07-25T12:31:17;7.77;;;5.70;;
27744;SDS011;61387;48.112;8.616;2022-07-25T12:33:43;6.70;;;5.80;;
27744;SDS011;61387;48.112;8.616;2022-07-25T12:36:12;9.77;;;6.18;;
27744;SDS011;61387;48.112;8.616;2022-07-25T12:38:38;8.15;;;6.22;;
27744;SDS011;61387;48.112;8.616;2022-07-25T12:41:04;8.15;;;6.65;;
27744;SDS011;61387;48.112;8.616;2022-07-25T12:43:30;8.50;;;6.97;;
27744;SDS011;61387;48.112;8.616;2022-07-25T12:45:56;8.17;;;6.70;;
27744;SDS011;61387;48.112;8.616;2022-07-25T12:48:22;8.97;;;7.20;;
27744;SDS011;61387;48.112;8.616;2022-07-25T12:50:48;9.40;;;7.00;;
27744;SDS011;61387;48.112;8.616;2022-07-25T12:53:14;8.20;;;6.33;;
27744;SDS011;61387;48.112;8.616;2022-07-25T12:55:40;8.40;;;7.07;;
27744;SDS011;61387;48.112;8.616;2022-07-25T12:58:06;9.83;;;7.33;;
27744;SDS011;61387;48.112;8.616;2022-07-25T13:00:33;8.60;;;7.20;;
27744;SDS011;61387;48.112;8.616;2022-07-25T13:02:59;8.98;;;8.07;;
27744;SDS011;61387;48.112;8.616;2022-07-25T13:05:25;10.53;;;8.20;;
27744;SDS011;61387;48.112;8.616;2022-07-25T13:07:51;13.10;;;8.90;;
27744;SDS011;61387;48.112;8.616;2022-07-25T13:10:17;10.25;;;7.87;;
27744;SDS011;61387;48.112;8.616;2022-07-25T13:12:43;9.40;;;7.70;;
27744;SDS011;61387;48.112;8.616;2022-07-25T13:15:09;10.05;;;8.00;;
27744;SDS011;61387;48.112;8.616;2022-07-25T13:17:35;10.80;;;8.07;;
27744;SDS011;61387;48.112;8.616;2022-07-25T13:20:01;11.13;;;8.00;;
27744;SDS011;61387;48.112;8.616;2022-07-25T13:22:28;11.68;;;8.50;;
27744;SDS011;61387;48.112;8.616;2022-07-25T13:24:54;10.97;;;8.63;;
27744;SDS011;61387;48.112;8.616;2022-07-25T13:27:20;10.43;;;8.33;;
27744;SDS011;61387;48.112;8.616;2022-07-25T13:29:47;9.75;;;7.93;;
27744;SDS011;61387;48.112;8.616;2022-07-25T13:32:18;10.18;;;8.00;;
27744;SDS011;61387;48.112;8.616;2022-07-25T13:34:44;12.25;;;8.50;;
27744;SDS011;61387;48.112;8.616;2022-07-25T13:37:10;10.57;;;7.87;;
27744;SDS011;61387;48.112;8.616;2022-07-25T13:39:37;10.50;;;8.10;;
27744;SDS011;61387;48.112;8.616;2022-07-25T13:42:04;10.73;;;8.43;;
27744;SDS011;61387;48.112;8.616;2022-07-25T13:44:30;8.88;;;7.78;;
27744;SDS011;61387;48.112;8.616;2022-07-25T13:46:56;10.93;;;8.13;;
27744;SDS011;61387;48.112;8.616;2022-07-25T13:49:22;9.98;;;8.02;;
27744;SDS011;61387;48.112;8.616;2022-07-25T13:51:48;9.40;;;7.97;;
27744;SDS011;61387;48.112;8.616;2022-07-25T13:54:14;9.07;;;7.80;;
27744;SDS011;61387;48.112;8.616;2022-07-25T13:56:40;11.77;;;7.87;;
27744;SDS011;61387;48.112;8.616;2022-07-25T13:59:07;11.88;;;8.82;;
27744;SDS011;61387;48.112;8.616;2022-07-25T14:01:33;11.80;;;8.98;;
27744;SDS011;61387;48.112;8.616;2022-07-25T14:03:59;9.60;;;7.93;;
27744;SDS011;61387;48.112;8.616;2022-07-25T14:06:25;11.00;;;7.75;;
27744;SDS011;61387;48.112;8.616;2022-07-25T14:08:51;11.20;;;8.60;;
27744;SDS011;61387;48.112;8.616;2022-07-25T14:11:17;12.33;;;7.93;;
27744;SDS011;61387;48.112;8.616;2022-07-25T14:13:43;10.93;;;7.70;;
27744;SDS011;61387;48.112;8.616;2022-07-25T14:16:10;10.53;;;7.63;;
27744;SDS011;61387;48.112;8.616;2022-07-25T14:18:40;10.25;;;7.90;;
27744;SDS011;61387;48.112;8.616;2022-07-25T14:21:05;10.03;;;8.10;;
27744;SDS011;61387;48.112;8.616;2022-07-25T14:23:31;10.23;;;7.83;;
27744;SDS011;61387;48.112;8.616;2022-07-25T14:25:57;10.73;;;8.40;;
27744;SDS011;61387;48.112;8.616;2022-07-25T14:28:23;10.63;;;7.97;;
27744;SDS011;61387;48.112;8.616;2022-07-25T14:30:49;11.30;;;7.82;;
27744;SDS011;61387;48.112;8.616;2022-07-25T14:33:16;10.82;;;8.30;;
27744;SDS011;61387;48.112;8.616;2022-07-25T14:35:42;9.80;;;7.57;;
27744;SDS011;61387;48.112;8.616;2022-07-25T14:38:08;9.10;;;7.63;;
27744;SDS011;61387;48.112;8.616;2022-07-25T14:40:34;10.67;;;8.53;;
27744;SDS011;61387;48.112;8.616;2022-07-25T14:43:00;11.02;;;7.47;;
27744;SDS011;61387;48.112;8.616;2022-07-25T14:45:27;8.65;;;7.75;;
27744;SDS011;61387;48.112;8.616;2022-07-25T14:47:53;10.17;;;7.53;;
27744;SDS011;61387;48.112;8.616;2022-07-25T14:50:19;11.43;;;8.10;;
27744;SDS011;61387;48.112;8.616;2022-07-25T14:52:45;11.18;;;7.75;;
27744;SDS011;61387;48.112;8.616;2022-07-25T14:55:11;9.73;;;7.83;;
27744;SDS011;61387;48.112;8.616;2022-07-25T14:57:37;11.12;;;7.65;;